Time;durP1;ratioP1;P1;durP2;ratioP2;P2;SDS_P1;SDS_P2;PMS_P1;PMS_P2;Temp;Humidity;BMP_temperature;BMP_pressure;BME280_temperature;BME280_humidity;BME280_pressure;Samples;Min_cycle;Max_cycle;Signal;HPM_P1;HPM_P2
2022/05/12 00:00:30;;;;;;;6.90;4.47;;;;;;;16.45;52.00;101666.13;2081502;28;20173;-65
2022/05/12 00:01:30;;;;;;;8.23;4.73;;;;;;;16.70;51.72;101703.25;2081385;28;20190;-65
2022/05/12 00:02:31;;;;;;;11.10;5.00;;;;;;;16.64;52.00;101707.09;2081818;28;20416;-67
2022/05/12 00:03:31;;;;;;;9.70;5.13;;;;;;;16.58;52.02;101704.06;2081916;28;20181;-66
2022/05/12 00:04:33;;;;;;;10.57;4.87;;;;;;;16.54;52.49;101708.22;2081245;28;20181;-66
2022/05/12 00:05:35;;;;;;;9.27;4.70;;;;;;;16.43;52.37;101697.34;2081568;28;20219;-66
2022/05/12 00:06:35;;;;;;;11.63;5.10;;;;;;;16.47;52.67;101707.66;2080427;28;20431;-65
2022/05/12 00:07:36;;;;;;;11.20;5.10;;;;;;;16.35;52.87;101701.53;2081471;28;20415;-66
2022/05/12 00:08:36;;;;;;;45.43;10.23;;;;;;;15.59;52.83;101601.22;2081936;28;20660;-66
2022/05/12 00:09:37;;;;;;;58.10;11.37;;;;;;;16.11;52.95;101693.91;2081016;28;20677;-66
2022/05/12 00:10:38;;;;;;;46.57;10.43;;;;;;;15.84;52.98;101669.13;2080775;28;20232;-66
2022/05/12 00:11:39;;;;;;;28.33;8.13;;;;;;;16.01;53.17;101695.78;2081323;28;20184;-66
2022/05/12 00:12:40;;;;;;;21.77;6.57;;;;;;;16.05;53.21;101710.47;2081910;28;20468;-67
2022/05/12 00:13:41;;;;;;;20.33;6.30;;;;;;;16.05;52.97;101715.25;2081963;28;20693;-65
2022/05/12 00:14:41;;;;;;;23.23;6.00;;;;;;;14.67;53.43;101507.25;2081210;28;20797;-66
2022/05/12 00:15:42;;;;;;;28.20;6.37;;;;;;;15.89;53.71;101706.94;2081435;28;20207;-66
2022/05/12 00:16:43;;;;;;;20.93;6.00;;;;;;;15.80;54.03;101715.16;2081047;28;20661;-66
2022/05/12 00:17:44;;;;;;;17.27;6.00;;;;;;;15.73;54.14;101718.19;2080884;28;20249;-65
2022/05/12 00:18:45;;;;;;;13.97;5.17;;;;;;;15.68;54.09;101707.53;2081834;28;20189;-66
2022/05/12 00:19:45;;;;;;;12.60;5.00;;;;;;;15.71;54.45;101715.81;2081769;28;20413;-66
2022/05/12 00:20:46;;;;;;;9.40;4.50;;;;;;;15.55;54.63;101701.91;2081264;28;20218;-66
2022/05/12 00:21:46;;;;;;;11.70;4.87;;;;;;;15.55;54.47;101695.50;2081038;28;20183;-66
2022/05/12 00:22:47;;;;;;;13.47;4.90;;;;;;;15.64;54.66;101718.81;2081562;28;20255;-66
2022/05/12 00:23:56;;;;;;;8.73;4.50;;;;;;;15.63;54.79;101717.22;2082035;28;20167;-65
2022/05/12 00:24:56;;;;;;;14.13;5.10;;;;;;;15.65;54.87;101716.78;2080703;28;20616;-66
2022/05/12 00:25:57;;;;;;;13.30;5.20;;;;;;;15.67;54.74;101719.94;2081827;28;20778;-66
2022/05/12 00:26:58;;;;;;;9.33;5.00;;;;;;;15.68;54.94;101724.31;2081246;28;20187;-66
2022/05/12 00:27:59;;;;;;;11.03;4.83;;;;;;;15.51;54.61;101698.41;2080306;28;20418;-66
2022/05/12 00:29:01;;;;;;;9.67;5.03;;;;;;;15.71;54.95;101715.81;2081784;28;20199;-66
2022/05/12 00:30:04;;;;;;;9.97;4.20;;;;;;;15.73;54.79;101723.78;2081566;28;20222;-66
2022/05/12 00:31:05;;;;;;;8.40;4.40;;;;;;;15.71;55.00;101715.81;2080503;28;20557;-66
2022/05/12 00:32:06;;;;;;;10.47;5.07;;;;;;;15.68;55.27;101707.53;2080430;28;20419;-66
2022/05/12 00:33:07;;;;;;;6.40;4.30;;;;;;;14.96;55.04;101584.16;2081846;28;20173;-66
2022/05/12 00:34:09;;;;;;;9.27;4.47;;;;;;;15.79;54.94;101708.78;2081475;28;20240;-66
2022/05/12 00:35:11;;;;;;;8.83;4.50;;;;;;;15.80;55.14;101715.16;2080815;28;20434;-65
2022/05/12 00:36:12;;;;;;;7.50;4.30;;;;;;;15.63;54.81;101685.72;2081660;28;20422;-66
2022/05/12 00:37:13;;;;;;;7.60;4.10;;;;;;;15.77;55.21;101713.28;2081647;28;20451;-65
2022/05/12 00:38:13;;;;;;;9.20;4.40;;;;;;;15.44;55.48;101673.47;2080630;28;20189;-66
2022/05/12 00:39:14;;;;;;;10.13;5.70;;;;;;;15.77;55.34;101719.63;2081392;28;20191;-66
2022/05/12 00:40:16;;;;;;;12.20;6.67;;;;;;;15.78;55.53;101723.22;2080977;28;20262;-66
2022/05/12 00:41:17;;;;;;;9.50;5.10;;;;;;;15.75;55.50;101718.50;2081593;28;20213;-66
2022/05/12 00:42:17;;;;;;;6.97;4.63;;;;;;;15.72;55.20;101720.19;2080330;28;20964;-66
2022/05/12 00:43:36;;;;;;;7.83;4.87;;;;;;;15.69;55.48;101721.06;2081086;28;20652;-66
2022/05/12 00:44:37;;;;;;;8.10;4.80;;;;;;;15.23;55.50;101678.78;2081007;28;20555;-66
2022/05/12 00:45:38;;;;;;;5.70;4.70;;;;;;;14.64;55.43;101578.63;2081136;28;20872;-66
2022/05/12 00:46:42;;;;;;;5.87;3.90;;;;;;;15.52;55.76;101727.91;2081556;28;20440;-66
2022/05/12 00:47:42;;;;;;;6.57;4.03;;;;;;;15.46;55.71;101717.69;2081770;28;20177;-66
2022/05/12 00:48:44;;;;;;;6.67;4.37;;;;;;;15.50;55.83;101723.97;2081120;28;20416;-66
2022/05/12 00:49:46;;;;;;;5.40;4.10;;;;;;;14.42;55.80;101562.88;2081053;28;20178;-66
2022/05/12 00:50:47;;;;;;;6.07;4.27;;;;;;;15.50;55.95;101726.78;2080712;28;20848;-66
2022/05/12 00:52:06;;;;;;;8.10;4.50;;;;;;;15.52;56.09;101729.94;2080772;28;20426;-65
2022/05/12 00:53:09;;;;;;;18.77;6.30;;;;;;;15.52;55.83;101724.34;2081660;28;20674;-66
2022/05/12 00:54:23;;;;;;;16.40;6.03;;;;;;;15.11;55.90;101679.53;2080749;28;20592;-66
2022/05/12 00:55:36;;;;;;;19.13;5.50;;;;;;;14.84;56.00;101620.38;2080094;28;20475;-65
2022/05/12 00:56:37;;;;;;;14.53;5.53;;;;;;;15.49;56.12;101719.63;2081199;28;20411;-66
2022/05/12 00:57:47;;;;;;;12.80;5.30;;;;;;;15.53;56.25;101728.69;2081459;28;20424;-66
2022/05/12 00:58:51;;;;;;;13.73;5.70;;;;;;;15.35;56.10;101698.44;2081548;28;20252;-66
2022/05/12 00:59:51;;;;;;;14.57;5.03;;;;;;;15.48;56.15;101718.81;2080772;28;20852;-66
2022/05/12 01:00:52;;;;;;;16.53;5.03;;;;;;;14.89;56.23;101631.03;2080641;28;20418;-66
2022/05/12 01:01:54;;;;;;;14.17;5.43;;;;;;;15.52;56.83;101722.31;2080764;28;20183;-66
2022/05/12 01:02:57;;;;;;;10.87;5.43;;;;;;;15.51;57.33;101729.13;2081611;28;20218;-65
2022/05/12 01:03:59;;;;;;;12.90;5.20;;;;;;;15.44;57.87;101746.09;2080482;28;20469;-66
2022/05/12 01:05:00;;;;;;;10.03;4.23;;;;;;;15.49;57.57;101733.59;2079851;28;20418;-66
2022/05/12 01:06:03;;;;;;;7.93;4.60;;;;;;;15.47;58.78;101728.44;2081426;28;20423;-66
2022/05/12 01:07:03;;;;;;;6.00;4.60;;;;;;;15.20;58.95;101700.00;2081178;28;20415;-66
2022/05/12 01:08:04;;;;;;;8.10;4.87;;;;;;;15.44;59.00;101726.53;2081273;28;20499;-66
2022/05/12 01:09:05;;;;;;;7.67;4.30;;;;;;;14.89;58.78;101642.97;2081522;28;20184;-66
2022/05/12 01:10:09;;;;;;;8.80;4.43;;;;;;;15.50;58.84;101735.97;2081037;28;20423;-66
2022/05/12 01:11:17;;;;;;;8.27;4.60;;;;;;;15.50;58.73;101733.16;2080760;28;20453;-66
2022/05/12 01:12:19;;;;;;;9.23;4.80;;;;;;;15.02;58.63;101657.00;2081042;28;20842;-66
2022/05/12 01:13:20;;;;;;;8.50;4.30;;;;;;;15.58;58.55;101734.53;2081285;28;20890;-66
2022/05/12 01:14:21;;;;;;;8.10;4.67;;;;;;;15.46;58.05;101714.91;2081231;28;20488;-65
2022/05/12 01:15:24;;;;;;;14.40;5.03;;;;;;;15.56;58.00;101734.19;2079894;28;20692;-65
2022/05/12 01:16:53;;;;;;;8.63;4.20;;;;;;;15.55;57.96;101721.44;2080683;28;20416;-66
2022/05/12 01:18:10;;;;;;;12.03;4.53;;;;;;;15.58;57.71;101728.94;2082503;28;20465;-66
2022/05/12 01:19:15;;;;;;;7.97;4.63;;;;;;;15.61;57.85;101733.66;2089743;28;20399;-66
2022/05/12 01:20:16;;;;;;;7.90;4.73;;;;;;;15.46;58.03;101714.91;2088994;28;20425;-66
2022/05/12 01:21:16;;;;;;;9.23;4.47;;;;;;;15.65;58.11;101739.16;2088583;28;21011;-66
2022/05/12 01:22:41;;;;;;;6.63;4.50;;;;;;;15.64;57.74;101741.16;2088999;28;20670;-66
2022/05/12 01:23:42;;;;;;;9.30;4.27;;;;;;;15.65;58.00;101736.34;2072563;28;20200;-66
2022/05/12 01:24:42;;;;;;;11.13;4.67;;;;;;;15.66;57.93;101737.91;2071478;28;20409;-65
2022/05/12 01:25:43;;;;;;;10.33;4.50;;;;;;;15.66;58.06;101735.13;2072429;28;20177;-66
2022/05/12 01:26:44;;;;;;;8.13;4.43;;;;;;;15.65;57.82;101739.94;2073137;28;20210;-66
2022/05/12 01:27:45;;;;;;;6.87;4.63;;;;;;;15.57;58.37;101738.56;2073174;28;20261;-66
2022/05/12 01:28:46;;;;;;;7.30;4.67;;;;;;;15.57;58.11;101737.78;2072993;28;20950;-66
2022/05/12 01:29:52;;;;;;;11.37;5.17;;;;;;;15.61;58.03;101738.44;2073108;28;20431;-66
2022/05/12 01:30:53;;;;;;;10.87;4.83;;;;;;;15.25;58.13;101676.34;2072394;28;20271;-66
2022/05/12 01:31:54;;;;;;;8.87;4.60;;;;;;;15.58;57.90;101728.94;2071734;28;20949;-65
2022/05/12 01:32:54;;;;;;;9.27;4.60;;;;;;;15.49;58.18;101730.81;2073174;28;20187;-66
2022/05/12 01:33:55;;;;;;;7.00;4.53;;;;;;;15.54;57.78;101738.66;2072321;28;20323;-66
2022/05/12 01:34:57;;;;;;;7.43;4.00;;;;;;;15.53;57.89;101735.06;2071380;28;20264;-66
2022/05/12 01:35:57;;;;;;;6.30;3.80;;;;;;;14.95;57.28;101649.59;2073089;28;20571;-66
2022/05/12 01:36:58;;;;;;;10.47;4.60;;;;;;;15.55;57.29;101738.22;2072897;28;20460;-66
2022/05/12 01:37:59;;;;;;;6.90;3.93;;;;;;;15.58;57.06;101742.13;2073081;28;20184;-66
2022/05/12 01:39:00;;;;;;;6.07;3.93;;;;;;;15.57;56.37;101743.38;2073143;28;20726;-66
2022/05/12 01:40:00;;;;;;;7.50;4.03;;;;;;;15.37;56.68;101707.16;2072116;28;20427;-66
2022/05/12 01:41:01;;;;;;;9.23;4.13;;;;;;;15.55;56.63;101740.22;2071842;28;20466;-66
2022/05/12 01:42:03;;;;;;;8.17;4.50;;;;;;;15.39;56.54;101723.47;2072039;28;20190;-65
2022/05/12 01:43:04;;;;;;;9.13;4.80;;;;;;;14.80;56.92;101620.47;2072344;28;20169;-66
2022/05/12 01:44:05;;;;;;;8.27;4.50;;;;;;;15.54;56.70;101733.84;2072919;28;20958;-66
2022/05/12 01:45:07;;;;;;;7.70;4.20;;;;;;;15.54;56.95;101739.44;2072121;28;20239;-66
2022/05/12 01:46:08;;;;;;;11.43;4.70;;;;;;;15.54;56.57;101739.44;2072173;28;20185;-66
2022/05/12 01:47:11;;;;;;;5.50;4.03;;;;;;;15.54;56.94;101741.44;2072554;28;20447;-66
2022/05/12 01:48:13;;;;;;;6.07;3.97;;;;;;;15.53;56.76;101737.84;2072287;28;20268;-65
2022/05/12 01:49:14;;;;;;;8.90;4.10;;;;;;;15.54;56.68;101738.66;2072352;28;20504;-67
2022/05/12 01:50:15;;;;;;;5.87;4.00;;;;;;;15.12;57.02;101687.44;2072383;28;20422;-66
2022/05/12 01:51:15;;;;;;;5.67;3.80;;;;;;;15.51;56.82;101745.09;2072813;28;20184;-66
2022/05/12 01:52:16;;;;;;;8.30;4.00;;;;;;;15.44;56.87;101736.91;2072344;28;20245;-66
2022/05/12 01:53:17;;;;;;;6.57;4.30;;;;;;;15.41;56.75;101729.41;2072214;28;20212;-66
2022/05/12 01:54:17;;;;;;;6.60;4.30;;;;;;;15.45;57.09;101742.06;2072830;28;20532;-66
2022/05/12 01:55:20;;;;;;;6.17;4.10;;;;;;;15.32;57.25;101716.03;2072029;28;21027;-66
2022/05/12 01:56:21;;;;;;;8.07;4.47;;;;;;;14.65;57.05;101627.63;2072840;28;20643;-66
2022/05/12 01:57:22;;;;;;;5.17;4.07;;;;;;;15.38;57.14;101745.03;2072993;28;20505;-66
2022/05/12 01:58:23;;;;;;;7.67;4.03;;;;;;;14.80;57.58;101659.53;2072736;28;20188;-66
2022/05/12 01:59:24;;;;;;;8.27;3.97;;;;;;;15.07;57.37;101707.50;2072792;28;20420;-66
2022/05/12 02:00:29;;;;;;;5.67;4.00;;;;;;;15.35;57.26;101736.75;2072356;28;20308;-66
2022/05/12 02:01:30;;;;;;;5.47;3.90;;;;;;;15.33;57.27;101740.00;2072154;28;20214;-66
2022/05/12 02:02:30;;;;;;;11.63;4.27;;;;;;;15.34;57.55;101747.16;2072810;28;20423;-66
2022/05/12 02:03:31;;;;;;;5.13;4.17;;;;;;;15.36;57.16;101741.13;2072499;28;20179;-66
2022/05/12 02:04:31;;;;;;;7.47;4.37;;;;;;;15.28;57.15;101734.91;2071823;28;20185;-66
2022/05/12 02:05:35;;;;;;;9.67;3.90;;;;;;;15.34;57.25;101743.56;2072500;28;20183;-66
2022/05/12 02:06:35;;;;;;;9.00;4.10;;;;;;;14.66;57.40;101654.31;2072773;28;20269;-66
2022/05/12 02:07:38;;;;;;;7.73;4.03;;;;;;;15.21;57.58;101739.91;2072705;28;20423;-66
2022/05/12 02:08:39;;;;;;;7.73;4.10;;;;;;;15.28;57.78;101748.09;2072433;28;20184;-66
2022/05/12 02:09:39;;;;;;;6.90;4.50;;;;;;;15.24;57.59;101750.97;2072816;28;20442;-66
2022/05/12 02:10:42;;;;;;;6.17;4.03;;;;;;;15.15;57.95;101744.41;2072430;28;20650;-66
2022/05/12 02:11:43;;;;;;;7.40;4.17;;;;;;;15.22;58.31;101750.59;2072144;28;20189;-66
2022/05/12 02:12:43;;;;;;;6.00;4.07;;;;;;;15.21;58.32;101748.28;2072708;28;20427;-66
2022/05/12 02:13:44;;;;;;;8.33;4.40;;;;;;;15.15;58.17;101750.00;2072870;28;20186;-66
2022/05/12 02:14:44;;;;;;;6.03;3.87;;;;;;;15.14;58.20;101754.00;2071496;28;20188;-66
2022/05/12 02:15:46;;;;;;;8.67;4.00;;;;;;;15.11;58.56;101749.31;2072277;28;20189;-66
2022/05/12 02:16:47;;;;;;;6.67;4.50;;;;;;;14.81;58.50;101708.56;2072923;28;20177;-66
2022/05/12 02:17:49;;;;;;;10.17;4.43;;;;;;;15.17;58.38;101753.16;2076556;28;20467;-66
2022/05/12 02:18:50;;;;;;;6.00;4.00;;;;;;;15.13;58.70;101741.28;2089104;28;20183;-65
2022/05/12 02:19:50;;;;;;;6.00;3.90;;;;;;;14.85;58.65;101714.06;2089220;28;20538;-66
2022/05/12 02:20:51;;;;;;;8.47;3.97;;;;;;;15.12;58.68;101750.88;2088743;28;20183;-66
2022/05/12 02:21:51;;;;;;;6.97;4.77;;;;;;;15.16;58.64;101754.38;2086559;28;20588;-66
2022/05/12 02:22:51;;;;;;;7.50;4.80;;;;;;;15.14;58.82;101752.03;2080634;28;20259;-66
2022/05/12 02:23:52;;;;;;;5.97;4.43;;;;;;;15.14;58.63;101759.59;2081032;28;20593;-66
2022/05/12 02:24:53;;;;;;;10.10;4.70;;;;;;;15.07;58.63;101754.97;2079449;28;20193;-66
2022/05/12 02:25:54;;;;;;;9.80;4.90;;;;;;;14.83;59.08;101736.03;2080661;28;20258;-66
2022/05/12 02:26:56;;;;;;;11.57;4.33;;;;;;;15.03;58.89;101759.06;2080918;28;20419;-67
2022/05/12 02:27:56;;;;;;;11.17;4.63;;;;;;;15.01;58.99;101759.50;2080915;28;20547;-66
2022/05/12 02:28:57;;;;;;;12.97;5.33;;;;;;;15.00;58.76;101748.75;2080998;28;20415;-66
2022/05/12 02:29:58;;;;;;;13.40;5.10;;;;;;;15.07;58.82;101760.53;2080857;28;20176;-66
2022/05/12 02:30:59;;;;;;;8.47;4.60;;;;;;;15.01;59.13;101759.50;2080301;28;20366;-66
2022/05/12 02:31:59;;;;;;;9.87;4.53;;;;;;;14.16;58.88;101631.56;2080419;28;20267;-66
2022/05/12 02:33:00;;;;;;;8.60;4.33;;;;;;;14.21;58.96;101653.41;2080873;28;20419;-66
2022/05/12 02:34:02;;;;;;;9.17;4.37;;;;;;;14.94;59.12;101745.72;2080863;28;20187;-66
2022/05/12 02:35:03;;;;;;;8.37;3.77;;;;;;;15.00;58.80;101748.75;2079791;28;20214;-66
2022/05/12 02:36:03;;;;;;;8.47;4.13;;;;;;;15.02;58.89;101752.69;2080132;28;20416;-66
2022/05/12 02:37:05;;;;;;;11.90;4.70;;;;;;;15.03;58.96;101753.50;2080853;28;20203;-66
2022/05/12 02:38:07;;;;;;;10.40;4.63;;;;;;;15.03;58.81;101756.28;2080141;28;20172;-66
2022/05/12 02:39:07;;;;;;;6.17;4.17;;;;;;;15.05;58.93;101756.63;2072299;28;20467;-66
2022/05/12 02:40:10;;;;;;;7.47;3.70;;;;;;;15.05;58.84;101757.41;2079887;28;20410;-66
2022/05/12 02:41:11;;;;;;;6.97;4.27;;;;;;;15.06;58.69;101752.63;2080758;28;20180;-65
2022/05/12 02:42:11;;;;;;;5.83;4.30;;;;;;;15.07;58.76;101757.75;2079252;28;20455;-66
2022/05/12 02:43:24;;;;;;;4.97;4.03;;;;;;;14.98;58.59;101738.06;2080021;28;20260;-65
2022/05/12 02:44:25;;;;;;;4.87;3.97;;;;;;;15.04;58.53;101757.84;2080583;28;20207;-66
2022/05/12 02:45:27;;;;;;;11.60;4.50;;;;;;;14.96;58.80;101753.66;2080109;28;20419;-66
2022/05/12 02:46:27;;;;;;;10.33;4.73;;;;;;;15.02;58.53;101757.50;2080026;28;20243;-66
2022/05/12 02:47:28;;;;;;;10.07;4.77;;;;;;;14.97;58.28;101756.00;2080147;28;20487;-66
2022/05/12 02:48:32;;;;;;;16.10;5.03;;;;;;;14.96;58.17;101765.59;2080254;28;20172;-65
2022/05/12 02:49:33;;;;;;;10.40;4.97;;;;;;;14.94;58.14;101756.09;2080739;28;20560;-66
2022/05/12 02:50:33;;;;;;;7.97;4.50;;;;;;;14.95;58.18;101757.66;2080160;28;20800;-66
2022/05/12 02:51:34;;;;;;;10.37;4.80;;;;;;;14.90;58.08;101758.97;2080063;28;20192;-66
2022/05/12 02:52:34;;;;;;;11.53;5.20;;;;;;;14.89;58.12;101760.19;2080734;28;20567;-65
2022/05/12 02:53:35;;;;;;;10.83;4.40;;;;;;;14.50;58.43;101709.31;2080897;28;20267;-65
2022/05/12 02:54:36;;;;;;;11.13;4.77;;;;;;;14.48;58.42;101703.38;2080164;28;20655;-66
2022/05/12 02:55:37;;;;;;;7.83;4.67;;;;;;;14.76;58.05;101753.72;2079656;28;20890;-66
2022/05/12 02:56:38;;;;;;;11.77;5.10;;;;;;;14.80;58.56;101756.44;2079936;28;20494;-66
2022/05/12 02:57:39;;;;;;;8.77;4.53;;;;;;;14.78;58.56;101758.88;2080218;28;20176;-65
2022/05/12 02:58:40;;;;;;;12.23;5.27;;;;;;;14.78;58.75;101768.03;2080797;28;20418;-66
2022/05/12 02:59:40;;;;;;;12.50;4.90;;;;;;;13.90;58.66;101638.13;2080871;28;20207;-66
2022/05/12 03:00:41;;;;;;;9.87;5.10;;;;;;;14.78;58.67;101772.81;2080316;28;20173;-66
2022/05/12 03:01:41;;;;;;;17.33;5.00;;;;;;;14.75;58.90;101768.13;2080089;28;20184;-66
2022/05/12 03:02:42;;;;;;;25.63;5.93;;;;;;;14.75;58.74;101768.91;2080621;28;20180;-66
2022/05/12 03:03:43;;;;;;;18.70;5.70;;;;;;;14.77;58.93;101771.25;2080602;28;20646;-65
2022/05/12 03:04:43;;;;;;;11.60;5.80;;;;;;;14.77;58.99;101771.25;2079966;28;20265;-66
2022/05/12 03:05:44;;;;;;;14.00;5.10;;;;;;;14.75;58.87;101762.53;2080510;28;20177;-66
2022/05/12 03:06:44;;;;;;;12.37;4.90;;;;;;;14.75;59.09;101773.72;2080608;28;20179;-66
2022/05/12 03:07:44;;;;;;;21.43;5.77;;;;;;;14.75;59.22;101773.72;2079597;28;20184;-66
2022/05/12 03:08:45;;;;;;;18.17;5.40;;;;;;;14.75;59.08;101774.47;2079870;28;20183;-66
2022/05/12 03:09:45;;;;;;;13.97;5.33;;;;;;;14.71;59.16;101768.19;2080695;28;20256;-66
2022/05/12 03:10:49;;;;;;;8.37;4.83;;;;;;;14.70;59.57;101771.44;2080221;28;20262;-65
2022/05/12 03:11:49;;;;;;;12.00;4.97;;;;;;;14.65;59.89;101777.53;2080074;28;20274;-65
2022/05/12 03:12:50;;;;;;;9.67;5.17;;;;;;;14.64;60.04;101773.94;2080326;28;20481;-66
2022/05/12 03:13:51;;;;;;;11.70;5.67;;;;;;;13.93;60.01;101650.41;2080803;28;20200;-66
2022/05/12 03:14:52;;;;;;;12.70;5.70;;;;;;;14.69;59.97;101776.22;2079678;28;20431;-66
2022/05/12 03:15:54;;;;;;;11.77;5.10;;;;;;;14.70;59.74;101782.59;2080456;28;20278;-66
2022/05/12 03:16:54;;;;;;;14.17;5.70;;;;;;;14.71;59.71;101786.94;2080019;28;20175;-66
2022/05/12 03:17:55;;;;;;;16.33;5.40;;;;;;;14.68;59.52;101777.44;2083126;28;20412;-66
2022/05/12 03:18:56;;;;;;;11.80;5.10;;;;;;;14.54;59.72;101777.75;2088156;28;20176;-66
2022/05/12 03:19:57;;;;;;;10.43;5.30;;;;;;;14.58;59.72;101778.47;2090525;28;20655;-66
2022/05/12 03:20:57;;;;;;;9.20;5.00;;;;;;;14.62;59.79;101778.38;2090041;28;20409;-66
2022/05/12 03:21:59;;;;;;;8.53;5.37;;;;;;;14.63;60.02;101785.50;2087167;28;20234;-66
2022/05/12 03:23:00;;;;;;;12.03;4.90;;;;;;;14.54;60.13;101774.16;2081897;28;20683;-66
2022/05/12 03:24:01;;;;;;;10.80;5.23;;;;;;;14.64;59.98;101781.50;2082187;28;20943;-66
2022/05/12 03:25:02;;;;;;;9.47;5.53;;;;;;;14.63;59.90;101793.88;2081084;28;20846;-66
2022/05/12 03:26:02;;;;;;;10.20;5.33;;;;;;;14.60;60.21;101781.59;2081555;28;20188;-66
2022/05/12 03:27:03;;;;;;;9.17;5.87;;;;;;;14.59;60.28;101784.81;2081633;28;20503;-66
2022/05/12 03:28:04;;;;;;;8.53;5.53;;;;;;;14.63;60.30;101788.31;2082093;28;20619;-66
2022/05/12 03:29:04;;;;;;;11.20;5.73;;;;;;;14.15;60.35;101716.41;2081757;28;20261;-65
2022/05/12 03:30:08;;;;;;;9.87;5.30;;;;;;;14.64;60.39;101782.31;2081920;28;20178;-66
2022/05/12 03:31:08;;;;;;;12.20;5.40;;;;;;;14.50;60.43;101782.59;2081164;28;20260;-66
2022/05/12 03:32:12;;;;;;;10.10;5.50;;;;;;;14.12;60.20;101705.34;2080971;28;20408;-66
2022/05/12 03:33:12;;;;;;;12.90;6.20;;;;;;;14.70;59.95;101796.53;2082159;28;20166;-66
2022/05/12 03:34:13;;;;;;;8.47;5.33;;;;;;;13.61;59.80;101619.63;2081726;28;20925;-66
2022/05/12 03:35:14;;;;;;;11.30;5.47;;;;;;;14.73;60.03;101792.88;2080579;28;20174;-66
2022/05/12 03:36:15;;;;;;;11.77;5.90;;;;;;;14.69;59.89;101787.38;2081678;28;20227;-66
2022/05/12 03:37:17;;;;;;;17.53;5.73;;;;;;;14.72;60.03;101800.47;2081408;28;20203;-66
2022/05/12 03:38:19;;;;;;;8.83;5.70;;;;;;;14.75;60.04;101796.78;2081561;28;20420;-66
2022/05/12 03:39:21;;;;;;;7.50;4.77;;;;;;;14.73;59.84;101785.28;2082083;28;20510;-65
2022/05/12 03:40:22;;;;;;;7.80;5.63;;;;;;;14.46;60.03;101739.28;2081065;28;20504;-66
2022/05/12 03:41:22;;;;;;;7.00;5.20;;;;;;;14.65;59.84;101778.28;2081834;28;20423;-66
2022/05/12 03:42:23;;;;;;;7.13;5.03;;;;;;;14.77;60.09;101797.16;2081780;28;20181;-66
2022/05/12 03:44:53;;;;;;;9.07;5.43;;;;;;;14.76;59.99;101795.56;2081489;28;20166;-66
2022/05/12 03:45:54;;;;;;;10.00;5.63;;;;;;;14.75;59.75;101793.25;2082047;28;20405;-65
2022/05/12 03:46:54;;;;;;;6.90;5.20;;;;;;;14.84;59.88;101797.00;2082039;28;20420;-65
2022/05/12 03:47:57;;;;;;;8.17;5.40;;;;;;;14.83;59.83;101794.63;2082228;28;20169;-66
2022/05/12 03:48:59;;;;;;;8.67;5.80;;;;;;;14.81;59.75;101795.06;2081935;28;20247;-66
2022/05/12 03:50:04;;;;;;;8.60;5.57;;;;;;;14.79;59.83;101803.09;2082015;28;20425;-66
2022/05/12 03:51:06;;;;;;;14.13;5.33;;;;;;;14.64;59.74;101776.72;2081083;28;20452;-66
2022/05/12 03:52:07;;;;;;;9.43;5.70;;;;;;;14.88;59.75;101797.72;2081242;28;20420;-66
2022/05/12 03:53:08;;;;;;;9.63;5.50;;;;;;;14.92;59.67;101806.78;2082028;28;20419;-66
2022/05/12 03:54:08;;;;;;;9.00;5.20;;;;;;;14.91;59.67;101805.19;2081870;28;20454;-66
2022/05/12 03:55:13;;;;;;;11.83;6.07;;;;;;;14.91;59.76;101812.81;2080823;28;20605;-66
2022/05/12 03:56:14;;;;;;;11.23;5.87;;;;;;;14.90;59.67;101808.44;2082098;28;20227;-66
2022/05/12 03:57:16;;;;;;;10.37;5.40;;;;;;;14.93;60.01;101807.56;2082053;28;20895;-66
2022/05/12 03:58:16;;;;;;;10.53;5.90;;;;;;;14.62;59.73;101751.28;2081922;28;20313;-66
2022/05/12 03:59:16;;;;;;;9.90;5.07;;;;;;;14.99;59.77;101811.41;2082092;28;20426;-66
2022/05/12 04:00:23;;;;;;;13.23;5.77;;;;;;;15.02;59.76;101810.56;2081654;28;20656;-66
2022/05/12 04:01:24;;;;;;;7.03;5.30;;;;;;;15.04;59.73;101808.09;2080818;28;20158;-66
2022/05/12 04:02:24;;;;;;;11.10;5.50;;;;;;;14.98;59.92;101795.88;2081815;28;20555;-66
2022/05/12 04:03:26;;;;;;;8.37;5.57;;;;;;;15.10;59.72;101809.94;2081892;28;20641;-66
2022/05/12 04:04:27;;;;;;;9.13;5.60;;;;;;;14.81;60.07;101767.16;2081383;28;20180;-66
2022/05/12 04:05:31;;;;;;;7.33;5.20;;;;;;;14.42;59.88;101697.53;2081135;28;20420;-66
2022/05/12 04:06:31;;;;;;;9.57;5.40;;;;;;;15.19;60.23;101817.72;2081952;28;20184;-66
2022/05/12 04:07:32;;;;;;;8.13;5.33;;;;;;;15.12;59.93;101795.56;2081945;28;20419;-66
2022/05/12 04:08:33;;;;;;;11.60;5.40;;;;;;;15.29;60.09;101830.63;2081818;28;20180;-66
2022/05/12 04:09:33;;;;;;;9.30;5.40;;;;;;;15.29;60.09;101823.06;2081916;28;20185;-66
2022/05/12 04:10:34;;;;;;;9.10;5.40;;;;;;;15.14;60.05;101804.28;2081236;28;20948;-66
2022/05/12 04:11:34;;;;;;;8.70;4.97;;;;;;;15.34;60.07;101827.34;2081250;28;20184;-66
2022/05/12 04:12:35;;;;;;;10.07;5.63;;;;;;;15.30;60.45;101804.28;2080790;28;20192;-66
2022/05/12 04:13:36;;;;;;;11.83;6.00;;;;;;;15.40;60.57;101811.63;2081181;28;20203;-65
2022/05/12 04:14:37;;;;;;;10.07;6.03;;;;;;;15.42;60.23;101818.34;2081292;28;20173;-66
2022/05/12 04:15:38;;;;;;;12.47;5.77;;;;;;;15.47;60.47;101815.03;2081257;28;20645;-65
2022/05/12 04:16:39;;;;;;;11.33;6.07;;;;;;;15.51;60.38;101820.53;2082017;28;20501;-66
2022/05/12 04:17:39;;;;;;;6.47;5.33;;;;;;;15.55;60.06;101821.25;2082693;28;20674;-66
2022/05/12 04:18:40;;;;;;;8.40;5.27;;;;;;;15.54;60.39;101823.25;2089968;28;20647;-66
2022/05/12 04:19:41;;;;;;;8.53;5.30;;;;;;;15.56;61.01;101828.38;2089399;28;20187;-65
2022/05/12 04:20:41;;;;;;;6.37;5.03;;;;;;;15.18;61.46;101775.06;2080545;28;20663;-66
2022/05/12 04:21:42;;;;;;;8.00;5.47;;;;;;;15.58;61.53;101823.16;2088347;28;20413;-66
2022/05/12 04:22:45;;;;;;;7.40;5.37;;;;;;;15.36;61.74;101789.38;2081491;28;20739;-66
2022/05/12 04:23:46;;;;;;;12.47;6.90;;;;;;;15.65;61.77;101829.38;2081693;28;20596;-66
2022/05/12 04:24:46;;;;;;;10.10;6.40;;;;;;;15.70;61.54;101833.63;2080910;28;20426;-66
2022/05/12 04:25:47;;;;;;;8.97;5.90;;;;;;;15.74;61.36;101831.53;2081296;28;20684;-66
2022/05/12 04:26:47;;;;;;;8.03;5.80;;;;;;;15.78;61.60;101827.41;2081711;28;20433;-66
2022/05/12 04:27:48;;;;;;;7.67;6.70;;;;;;;15.84;61.30;101830.47;2081671;28;20175;-66
2022/05/12 04:28:48;;;;;;;13.07;7.73;;;;;;;15.70;61.33;101805.69;2081788;28;20180;-66
2022/05/12 04:29:49;;;;;;;18.37;8.70;;;;;;;15.90;61.79;101823.91;2081800;28;20184;-66
2022/05/12 04:30:49;;;;;;;9.27;6.67;;;;;;;15.94;61.47;101830.16;2080629;28;20342;-66
2022/05/12 04:31:50;;;;;;;8.63;6.00;;;;;;;15.98;61.59;101830.88;2080905;28;20441;-66
2022/05/12 04:32:51;;;;;;;8.90;6.03;;;;;;;15.04;61.46;101682.47;2081743;28;20175;-66
2022/05/12 04:35:14;;;;;;;6.90;5.53;;;;;;;16.10;61.33;101832.97;2080917;28;20893;-66
2022/05/12 04:36:15;;;;;;;8.07;6.00;;;;;;;16.16;61.32;101833.19;2081433;28;20514;-66
2022/05/12 04:37:15;;;;;;;10.53;6.10;;;;;;;15.78;61.06;101771.50;2081541;28;20503;-66
2022/05/12 04:38:16;;;;;;;8.10;5.77;;;;;;;15.45;61.32;101716.94;2081685;28;20792;-66
2022/05/12 04:39:17;;;;;;;7.03;5.33;;;;;;;15.62;61.51;101731.66;2081472;28;20181;-66
2022/05/12 04:40:20;;;;;;;7.47;5.57;;;;;;;16.31;61.54;101832.38;2081023;28;20423;-66
2022/05/12 04:41:21;;;;;;;9.73;7.00;;;;;;;16.27;61.66;101816.88;2081145;28;20199;-66
2022/05/12 04:42:21;;;;;;;12.37;7.53;;;;;;;16.35;61.34;101827.44;2081004;28;20407;-66
2022/05/12 04:43:22;;;;;;;12.30;7.17;;;;;;;16.44;61.14;101829.63;2081456;28;20508;-66
2022/05/12 04:44:22;;;;;;;10.20;6.30;;;;;;;16.48;60.76;101831.09;2080830;28;20709;-66
2022/05/12 04:45:25;;;;;;;11.07;6.80;;;;;;;16.30;61.03;101793.63;2080253;28;20566;-66
2022/05/12 04:46:27;;;;;;;8.90;6.30;;;;;;;16.57;60.58;101844.44;2081377;28;20730;-66
2022/05/12 04:47:28;;;;;;;9.87;6.20;;;;;;;16.59;60.79;101836.41;2081320;28;20435;-66
2022/05/12 04:48:31;;;;;;;9.10;6.70;;;;;;;16.62;60.71;101838.28;2081311;28;20453;-66